sensor_id;sensor_type;location;lat;lon;timestamp;pressure;altitude;pressure_sealevel;temperature
43802;BMP280;29429;51.074;13.764;2022-11-20T00:03:43;99711.72;;;-4.25
43802;BMP280;29429;51.074;13.764;2022-11-20T00:06:14;99711.38;;;-4.20
43802;BMP280;29429;51.074;13.764;2022-11-20T00:08:41;99710.78;;;-4.24
43802;BMP280;29429;51.074;13.764;2022-11-20T00:11:19;99709.97;;;-4.24
43802;BMP280;29429;51.074;13.764;2022-11-20T00:13:49;99702.78;;;-4.21
43802;BMP280;29429;51.074;13.764;2022-11-20T00:16:20;99696.25;;;-4.15
43802;BMP280;29429;51.074;13.764;2022-11-20T00:18:47;99697.31;;;-4.18
43802;BMP280;29429;51.074;13.764;2022-11-20T00:21:26;99692.38;;;-4.21
43802;BMP280;29429;51.074;13.764;2022-11-20T00:23:55;99697.31;;;-4.18
43802;BMP280;29429;51.074;13.764;2022-11-20T00:26:25;99697.09;;;-4.15
43802;BMP280;29429;51.074;13.764;2022-11-20T00:29:00;99698.97;;;-4.17
43802;BMP280;29429;51.074;13.764;2022-11-20T00:31:29;99699.19;;;-4.20
43802;BMP280;29429;51.074;13.764;2022-11-20T00:33:56;99704.06;;;-4.26
43802;BMP280;29429;51.074;13.764;2022-11-20T00:36:27;99715.72;;;-4.32
43802;BMP280;29429;51.074;13.764;2022-11-20T00:38:57;99709.47;;;-4.29
43802;BMP280;29429;51.074;13.764;2022-11-20T00:41:26;99710.31;;;-4.29
43802;BMP280;29429;51.074;13.764;2022-11-20T00:43:55;99715.66;;;-4.19
43802;BMP280;29429;51.074;13.764;2022-11-20T00:46:25;99718.97;;;-4.17
43802;BMP280;29429;51.074;13.764;2022-11-20T00:48:52;99716.03;;;-4.13
43802;BMP280;29429;51.074;13.764;2022-11-20T00:51:23;99719.84;;;-4.06
43802;BMP280;29429;51.074;13.764;2022-11-20T00:53:51;99722.22;;;-4.03
43802;BMP280;29429;51.074;13.764;2022-11-20T00:56:19;99725.75;;;-4.04
43802;BMP280;29429;51.074;13.764;2022-11-20T00:58:48;99725.06;;;-4.06
43802;BMP280;29429;51.074;13.764;2022-11-20T01:01:21;99726.00;;;-4.07
43802;BMP280;29429;51.074;13.764;2022-11-20T01:03:53;99724.56;;;-4.11
43802;BMP280;29429;51.074;13.764;2022-11-20T01:06:24;99722.69;;;-4.09
43802;BMP280;29429;51.074;13.764;2022-11-20T01:08:55;99725.16;;;-4.07
43802;BMP280;29429;51.074;13.764;2022-11-20T01:11:27;99724.66;;;-4.12
43802;BMP280;29429;51.074;13.764;2022-11-20T01:13:56;99719.94;;;-4.18
43802;BMP280;29429;51.074;13.764;2022-11-20T01:16:28;99719.81;;;-4.17
43802;BMP280;29429;51.074;13.764;2022-11-20T01:18:59;99715.53;;;-4.18
43802;BMP280;29429;51.074;13.764;2022-11-20T01:21:36;99720.03;;;-4.20
43802;BMP280;29429;51.074;13.764;2022-11-20T01:24:06;99711.16;;;-4.17
43802;BMP280;29429;51.074;13.764;2022-11-20T01:26:37;99715.03;;;-4.23
43802;BMP280;29429;51.074;13.764;2022-11-20T01:29:06;99716.56;;;-4.32
43802;BMP280;29429;51.074;13.764;2022-11-20T01:31:36;99718.44;;;-4.34
43802;BMP280;29429;51.074;13.764;2022-11-20T01:34:16;99718.22;;;-4.31
43802;BMP280;29429;51.074;13.764;2022-11-20T01:36:44;99715.00;;;-4.34
43802;BMP280;29429;51.074;13.764;2022-11-20T01:39:19;99707.44;;;-4.37
43802;BMP280;29429;51.074;13.764;2022-11-20T01:41:50;99711.69;;;-4.36
43802;BMP280;29429;51.074;13.764;2022-11-20T01:44:53;99703.50;;;-4.43
43802;BMP280;29429;51.074;13.764;2022-11-20T01:50:26;99707.31;;;-4.59
43802;BMP280;29429;51.074;13.764;2022-11-20T01:53:02;99704.00;;;-4.61
43802;BMP280;29429;51.074;13.764;2022-11-20T01:55:39;99705.63;;;-4.60
43802;BMP280;29429;51.074;13.764;2022-11-20T01:58:08;99705.97;;;-4.65
43802;BMP280;29429;51.074;13.764;2022-11-20T02:00:36;99696.56;;;-4.55
43802;BMP280;29429;51.074;13.764;2022-11-20T02:03:11;99695.03;;;-4.57
43802;BMP280;29429;51.074;13.764;2022-11-20T02:08:18;99683.91;;;-4.59
43802;BMP280;29429;51.074;13.764;2022-11-20T02:10:45;99694.66;;;-4.64
43802;BMP280;29429;51.074;13.764;2022-11-20T02:13:12;99696.06;;;-4.60
43802;BMP280;29429;51.074;13.764;2022-11-20T02:15:59;99687.22;;;-4.57
43802;BMP280;29429;51.074;13.764;2022-11-20T02:18:26;99693.69;;;-4.63
43802;BMP280;29429;51.074;13.764;2022-11-20T02:21:07;99685.19;;;-4.65
43802;BMP280;29429;51.074;13.764;2022-11-20T02:26:32;99674.91;;;-4.66
43802;BMP280;29429;51.074;13.764;2022-11-20T02:29:02;99676.66;;;-4.67
43802;BMP280;29429;51.074;13.764;2022-11-20T02:31:40;99668.25;;;-4.70
43802;BMP280;29429;51.074;13.764;2022-11-20T02:34:09;99674.84;;;-4.77
43802;BMP280;29429;51.074;13.764;2022-11-20T02:36:39;99687.41;;;-4.71
43802;BMP280;29429;51.074;13.764;2022-11-20T02:39:08;99675.31;;;-4.72
43802;BMP280;29429;51.074;13.764;2022-11-20T02:41:37;99684.88;;;-4.73
43802;BMP280;29429;51.074;13.764;2022-11-20T02:44:05;99680.13;;;-4.79
43802;BMP280;29429;51.074;13.764;2022-11-20T02:46:32;99678.84;;;-4.73
43802;BMP280;29429;51.074;13.764;2022-11-20T02:49:02;99681.56;;;-4.75
43802;BMP280;29429;51.074;13.764;2022-11-20T02:51:30;99684.19;;;-4.75
43802;BMP280;29429;51.074;13.764;2022-11-20T02:53:57;99682.41;;;-4.74
43802;BMP280;29429;51.074;13.764;2022-11-20T02:56:24;99676.09;;;-4.83
43802;BMP280;29429;51.074;13.764;2022-11-20T02:58:52;99674.34;;;-4.82
43802;BMP280;29429;51.074;13.764;2022-11-20T03:01:19;99672.56;;;-4.82
43802;BMP280;29429;51.074;13.764;2022-11-20T03:03:46;99676.94;;;-4.82
43802;BMP280;29429;51.074;13.764;2022-11-20T03:06:17;99679.84;;;-4.87
43802;BMP280;29429;51.074;13.764;2022-11-20T03:08:44;99673.94;;;-4.89
43802;BMP280;29429;51.074;13.764;2022-11-20T03:11:11;99664.38;;;-4.88
43802;BMP280;29429;51.074;13.764;2022-11-20T03:13:38;99673.94;;;-4.89
43802;BMP280;29429;51.074;13.764;2022-11-20T03:16:13;99678.69;;;-4.83
43802;BMP280;29429;51.074;13.764;2022-11-20T03:18:41;99674.13;;;-4.79
43802;BMP280;29429;51.074;13.764;2022-11-20T03:21:10;99664.66;;;-4.80
43802;BMP280;29429;51.074;13.764;2022-11-20T03:23:39;99658.13;;;-4.86
43802;BMP280;29429;51.074;13.764;2022-11-20T03:26:20;99653.91;;;-4.76
43802;BMP280;29429;51.074;13.764;2022-11-20T03:29:08;99658.28;;;-4.76
43802;BMP280;29429;51.074;13.764;2022-11-20T03:31:40;99650.94;;;-4.82
43802;BMP280;29429;51.074;13.764;2022-11-20T03:34:10;99647.94;;;-4.89
43802;BMP280;29429;51.074;13.764;2022-11-20T03:36:40;99646.03;;;-4.87
43802;BMP280;29429;51.074;13.764;2022-11-20T03:39:07;99652.19;;;-4.88
43802;BMP280;29429;51.074;13.764;2022-11-20T03:41:40;99651.88;;;-4.83
43802;BMP280;29429;51.074;13.764;2022-11-20T03:44:10;99657.00;;;-4.95
43802;BMP280;29429;51.074;13.764;2022-11-20T03:46:38;99658.81;;;-5.08
43802;BMP280;29429;51.074;13.764;2022-11-20T03:49:06;99660.66;;;-4.97
43802;BMP280;29429;51.074;13.764;2022-11-20T03:51:35;99662.31;;;-4.96
43802;BMP280;29429;51.074;13.764;2022-11-20T03:54:06;99665.63;;;-4.94
43802;BMP280;29429;51.074;13.764;2022-11-20T03:56:37;99671.66;;;-4.94
43802;BMP280;29429;51.074;13.764;2022-11-20T03:59:05;99678.25;;;-5.01
43802;BMP280;29429;51.074;13.764;2022-11-20T04:01:36;99672.31;;;-5.03
43802;BMP280;29429;51.074;13.764;2022-11-20T04:04:09;99665.69;;;-5.07
43802;BMP280;29429;51.074;13.764;2022-11-20T04:06:38;99659.31;;;-5.03
43802;BMP280;29429;51.074;13.764;2022-11-20T04:09:06;99653.50;;;-5.06
43802;BMP280;29429;51.074;13.764;2022-11-20T04:11:36;99656.94;;;-5.06
43802;BMP280;29429;51.074;13.764;2022-11-20T04:14:06;99649.25;;;-5.07
43802;BMP280;29429;51.074;13.764;2022-11-20T04:16:38;99649.47;;;-5.10
43802;BMP280;29429;51.074;13.764;2022-11-20T04:19:10;99646.84;;;-5.10
43802;BMP280;29429;51.074;13.764;2022-11-20T04:21:38;99644.38;;;-5.12
43802;BMP280;29429;51.074;13.764;2022-11-20T04:24:05;99639.53;;;-5.16
43802;BMP280;29429;51.074;13.764;2022-11-20T04:26:34;99638.56;;;-5.15
43802;BMP280;29429;51.074;13.764;2022-11-20T04:29:01;99630.06;;;-5.17
43802;BMP280;29429;51.074;13.764;2022-11-20T04:31:33;99630.38;;;-5.22
43802;BMP280;29429;51.074;13.764;2022-11-20T04:34:04;99637.00;;;-5.18
43802;BMP280;29429;51.074;13.764;2022-11-20T04:36:32;99627.78;;;-5.22
43802;BMP280;29429;51.074;13.764;2022-11-20T04:39:03;99628.94;;;-5.26
43802;BMP280;29429;51.074;13.764;2022-11-20T04:41:35;99622.59;;;-5.22
43802;BMP280;29429;51.074;13.764;2022-11-20T04:44:05;99615.72;;;-5.23
43802;BMP280;29429;51.074;13.764;2022-11-20T04:46:42;99620.22;;;-5.25
43802;BMP280;29429;51.074;13.764;2022-11-20T04:49:11;99618.53;;;-5.26
43802;BMP280;29429;51.074;13.764;2022-11-20T04:51:38;99627.25;;;-5.27
43802;BMP280;29429;51.074;13.764;2022-11-20T04:54:05;99621.03;;;-5.24
43802;BMP280;29429;51.074;13.764;2022-11-20T04:56:32;99617.69;;;-5.26
43802;BMP280;29429;51.074;13.764;2022-11-20T04:59:02;99619.59;;;-5.28
43802;BMP280;29429;51.074;13.764;2022-11-20T05:01:30;99628.44;;;-5.31
43802;BMP280;29429;51.074;13.764;2022-11-20T05:03:57;99630.72;;;-5.39
43802;BMP280;29429;51.074;13.764;2022-11-20T05:06:24;99623.88;;;-5.40
43802;BMP280;29429;51.074;13.764;2022-11-20T05:08:51;99633.84;;;-5.34
43802;BMP280;29429;51.074;13.764;2022-11-20T05:11:20;99641.63;;;-5.34
43802;BMP280;29429;51.074;13.764;2022-11-20T05:13:49;99640.69;;;-5.33
43802;BMP280;29429;51.074;13.764;2022-11-20T05:16:20;99641.00;;;-5.25
43802;BMP280;29429;51.074;13.764;2022-11-20T05:18:49;99629.75;;;-5.25
43802;BMP280;29429;51.074;13.764;2022-11-20T05:21:17;99630.59;;;-5.25
43802;BMP280;29429;51.074;13.764;2022-11-20T05:23:45;99628.50;;;-5.20
43802;BMP280;29429;51.074;13.764;2022-11-20T05:26:19;99629.22;;;-5.18
43802;BMP280;29429;51.074;13.764;2022-11-20T05:28:49;99628.00;;;-5.25
43802;BMP280;29429;51.074;13.764;2022-11-20T05:31:20;99638.78;;;-5.18
43802;BMP280;29429;51.074;13.764;2022-11-20T05:33:53;99631.19;;;-5.21
43802;BMP280;29429;51.074;13.764;2022-11-20T05:36:20;99621.03;;;-5.24
43802;BMP280;29429;51.074;13.764;2022-11-20T05:38:47;99626.13;;;-5.23
43802;BMP280;29429;51.074;13.764;2022-11-20T05:41:19;99620.22;;;-5.25
43802;BMP280;29429;51.074;13.764;2022-11-20T05:43:49;99618.53;;;-5.26
43802;BMP280;29429;51.074;13.764;2022-11-20T05:46:19;99617.41;;;-5.22
43802;BMP280;29429;51.074;13.764;2022-11-20T05:48:54;99622.69;;;-5.23
43802;BMP280;29429;51.074;13.764;2022-11-20T05:51:22;99621.84;;;-5.24
43802;BMP280;29429;51.074;13.764;2022-11-20T05:53:49;99622.06;;;-5.27
43802;BMP280;29429;51.074;13.764;2022-11-20T05:56:19;99614.38;;;-5.28
43802;BMP280;29429;51.074;13.764;2022-11-20T05:58:48;99616.16;;;-5.29
43802;BMP280;29429;51.074;13.764;2022-11-20T06:01:21;99618.16;;;-5.32
43802;BMP280;29429;51.074;13.764;2022-11-20T06:03:49;99613.19;;;-5.35
43802;BMP280;29429;51.074;13.764;2022-11-20T06:06:18;99610.88;;;-5.40
43802;BMP280;29429;51.074;13.764;2022-11-20T06:08:45;99619.22;;;-5.35
43802;BMP280;29429;51.074;13.764;2022-11-20T06:11:14;99614.50;;;-5.30
43802;BMP280;29429;51.074;13.764;2022-11-20T06:13:42;99610.88;;;-5.40
43802;BMP280;29429;51.074;13.764;2022-11-20T06:16:11;99608.19;;;-5.38
43802;BMP280;29429;51.074;13.764;2022-11-20T06:18:38;99602.28;;;-5.40
43802;BMP280;29429;51.074;13.764;2022-11-20T06:21:12;99609.03;;;-5.38
43802;BMP280;29429;51.074;13.764;2022-11-20T06:23:40;99603.22;;;-5.41
43802;BMP280;29429;51.074;13.764;2022-11-20T06:26:14;99599.06;;;-5.44
43802;BMP280;29429;51.074;13.764;2022-11-20T06:28:41;99595.13;;;-5.49
43802;BMP280;29429;51.074;13.764;2022-11-20T06:31:13;99599.47;;;-5.50
43802;BMP280;29429;51.074;13.764;2022-11-20T06:33:42;99599.47;;;-5.50
43802;BMP280;29429;51.074;13.764;2022-11-20T06:36:12;99603.03;;;-5.51
43802;BMP280;29429;51.074;13.764;2022-11-20T06:38:39;99603.53;;;-5.46
43802;BMP280;29429;51.074;13.764;2022-11-20T06:41:11;99607.91;;;-5.46
43802;BMP280;29429;51.074;13.764;2022-11-20T06:43:39;99598.75;;;-5.52
43802;BMP280;29429;51.074;13.764;2022-11-20T06:46:06;99604.88;;;-5.53
43802;BMP280;29429;51.074;13.764;2022-11-20T06:48:33;99605.28;;;-5.46
43802;BMP280;29429;51.074;13.764;2022-11-20T06:51:04;99595.53;;;-5.43
43802;BMP280;29429;51.074;13.764;2022-11-20T06:53:31;99590.34;;;-5.43
43802;BMP280;29429;51.074;13.764;2022-11-20T06:55:59;99588.47;;;-5.41
43802;BMP280;29429;51.074;13.764;2022-11-20T06:58:32;99595.28;;;-5.40
43802;BMP280;29429;51.074;13.764;2022-11-20T07:01:06;99585.44;;;-5.35
43802;BMP280;29429;51.074;13.764;2022-11-20T07:03:34;99586.66;;;-5.28
43802;BMP280;29429;51.074;13.764;2022-11-20T07:06:01;99583.72;;;-5.23
43802;BMP280;29429;51.074;13.764;2022-11-20T07:08:29;99585.03;;;-5.18
43802;BMP280;29429;51.074;13.764;2022-11-20T07:11:03;99580.47;;;-5.14
43802;BMP280;29429;51.074;13.764;2022-11-20T07:13:31;99596.06;;;-5.14
43802;BMP280;29429;51.074;13.764;2022-11-20T07:16:49;99589.75;;;-4.99
43802;BMP280;29429;51.074;13.764;2022-11-20T07:19:16;99574.50;;;-5.04
43802;BMP280;29429;51.074;13.764;2022-11-20T07:21:43;99585.25;;;-4.97
43802;BMP280;29429;51.074;13.764;2022-11-20T07:24:10;99580.56;;;-4.92
43802;BMP280;29429;51.074;13.764;2022-11-20T07:26:38;99573.38;;;-4.88
43802;BMP280;29429;51.074;13.764;2022-11-20T07:29:05;99571.97;;;-4.81
43802;BMP280;29429;51.074;13.764;2022-11-20T07:31:32;99573.44;;;-4.77
43802;BMP280;29429;51.074;13.764;2022-11-20T07:33:59;99584.81;;;-4.67
43802;BMP280;29429;51.074;13.764;2022-11-20T07:36:26;99574.34;;;-4.78
43802;BMP280;29429;51.074;13.764;2022-11-20T07:38:53;99588.59;;;-4.71
43802;BMP280;29429;51.074;13.764;2022-11-20T07:41:20;99577.50;;;-4.62
43802;BMP280;29429;51.074;13.764;2022-11-20T07:43:47;99580.75;;;-4.48
43802;BMP280;29429;51.074;13.764;2022-11-20T07:46:14;99578.63;;;-4.43
43802;BMP280;29429;51.074;13.764;2022-11-20T07:48:41;99583.97;;;-4.33
43802;BMP280;29429;51.074;13.764;2022-11-20T07:51:08;99581.75;;;-4.26
43802;BMP280;29429;51.074;13.764;2022-11-20T07:53:35;99574.06;;;-4.17
43802;BMP280;29429;51.074;13.764;2022-11-20T07:56:03;99571.09;;;-4.12
43802;BMP280;29429;51.074;13.764;2022-11-20T07:58:30;99580.38;;;-3.97
43802;BMP280;29429;51.074;13.764;2022-11-20T08:01:07;99574.44;;;-3.88
43802;BMP280;29429;51.074;13.764;2022-11-20T08:03:35;99565.31;;;-3.83
43802;BMP280;29429;51.074;13.764;2022-11-20T08:06:04;99567.09;;;-3.83
43802;BMP280;29429;51.074;13.764;2022-11-20T08:08:32;99561.66;;;-3.69
43802;BMP280;29429;51.074;13.764;2022-11-20T08:11:00;99556.53;;;-3.59
43802;BMP280;29429;51.074;13.764;2022-11-20T08:13:47;99560.06;;;-3.49
43802;BMP280;29429;51.074;13.764;2022-11-20T08:16:32;99560.53;;;-3.33
43802;BMP280;29429;51.074;13.764;2022-11-20T08:18:59;99559.94;;;-3.26
43802;BMP280;29429;51.074;13.764;2022-11-20T08:21:26;99556.72;;;-3.18
43802;BMP280;29429;51.074;13.764;2022-11-20T08:23:53;99553.59;;;-3.12
43802;BMP280;29429;51.074;13.764;2022-11-20T08:26:21;99561.88;;;-3.07
43802;BMP280;29429;51.074;13.764;2022-11-20T08:28:48;99555.78;;;-2.96
43802;BMP280;29429;51.074;13.764;2022-11-20T08:31:15;99549.97;;;-2.89
43802;BMP280;29429;51.074;13.764;2022-11-20T08:33:42;99558.94;;;-2.82
43802;BMP280;29429;51.074;13.764;2022-11-20T08:36:09;99564.13;;;-2.71
43802;BMP280;29429;51.074;13.764;2022-11-20T08:38:35;99565.28;;;-2.64
43802;BMP280;29429;51.074;13.764;2022-11-20T08:41:05;99566.88;;;-2.52
43802;BMP280;29429;51.074;13.764;2022-11-20T08:43:56;99550.00;;;-2.48
43802;BMP280;29429;51.074;13.764;2022-11-20T08:46:26;99555.34;;;-2.28
43802;BMP280;29429;51.074;13.764;2022-11-20T08:48:54;99550.06;;;-2.17
43802;BMP280;29429;51.074;13.764;2022-11-20T08:51:21;99548.59;;;-2.10
43802;BMP280;29429;51.074;13.764;2022-11-20T08:53:48;99542.72;;;-2.03
43802;BMP280;29429;51.074;13.764;2022-11-20T08:56:18;99541.53;;;-1.89
43802;BMP280;29429;51.074;13.764;2022-11-20T08:58:45;99528.91;;;-1.84
43802;BMP280;29429;51.074;13.764;2022-11-20T09:01:32;99525.19;;;-1.81
43802;BMP280;29429;51.074;13.764;2022-11-20T09:03:59;99519.56;;;-1.77
43802;BMP280;29429;51.074;13.764;2022-11-20T09:06:26;99525.22;;;-1.72
43802;BMP280;29429;51.074;13.764;2022-11-20T09:08:54;99510.53;;;-1.63
43802;BMP280;29429;51.074;13.764;2022-11-20T09:11:21;99502.28;;;-1.59
43802;BMP280;29429;51.074;13.764;2022-11-20T09:13:49;99507.97;;;-1.54
43802;BMP280;29429;51.074;13.764;2022-11-20T09:16:16;99506.88;;;-1.42
43802;BMP280;29429;51.074;13.764;2022-11-20T09:18:43;99508.13;;;-1.36
43802;BMP280;29429;51.074;13.764;2022-11-20T09:21:12;99509.38;;;-1.31
43802;BMP280;29429;51.074;13.764;2022-11-20T09:23:40;99502.63;;;-1.24
43802;BMP280;29429;51.074;13.764;2022-11-20T09:26:11;99514.06;;;-1.15
43802;BMP280;29429;51.074;13.764;2022-11-20T09:28:40;99503.09;;;-1.09
43802;BMP280;29429;51.074;13.764;2022-11-20T09:31:09;99504.19;;;-1.02
43802;BMP280;29429;51.074;13.764;2022-11-20T09:33:36;99496.88;;;-0.98
43802;BMP280;29429;51.074;13.764;2022-11-20T09:36:04;99512.00;;;-0.92
43802;BMP280;29429;51.074;13.764;2022-11-20T09:38:31;99518.38;;;-0.85
43802;BMP280;29429;51.074;13.764;2022-11-20T09:41:06;99513.28;;;-0.77
43802;BMP280;29429;51.074;13.764;2022-11-20T09:43:48;99509.28;;;-0.72
43802;BMP280;29429;51.074;13.764;2022-11-20T09:53:16;99511.84;;;-0.52
43802;BMP280;29429;51.074;13.764;2022-11-20T09:55:48;99502.19;;;-0.52
43802;BMP280;29429;51.074;13.764;2022-11-20T09:58:33;99495.44;;;-0.45
43802;BMP280;29429;51.074;13.764;2022-11-20T10:01:34;99499.81;;;-0.36
43802;BMP280;29429;51.074;13.764;2022-11-20T10:04:20;99491.41;;;-0.30
43802;BMP280;29429;51.074;13.764;2022-11-20T10:09:55;99483.06;;;-0.16
43802;BMP280;29429;51.074;13.764;2022-11-20T10:12:52;99485.41;;;-0.03
43802;BMP280;29429;51.074;13.764;2022-11-20T10:26:52;99461.38;;;0.29
43802;BMP280;29429;51.074;13.764;2022-11-20T10:29:33;99455.53;;;0.35
43802;BMP280;29429;51.074;13.764;2022-11-20T10:32:17;99454.81;;;0.42
43802;BMP280;29429;51.074;13.764;2022-11-20T10:35:01;99447.47;;;0.46
43802;BMP280;29429;51.074;13.764;2022-11-20T10:37:32;99446.88;;;0.52
43802;BMP280;29429;51.074;13.764;2022-11-20T10:40:23;99455.50;;;0.62
43802;BMP280;29429;51.074;13.764;2022-11-20T10:43:02;99451.00;;;0.72
43802;BMP280;29429;51.074;13.764;2022-11-20T10:45:42;99455.72;;;0.86
43802;BMP280;29429;51.074;13.764;2022-11-20T10:48:23;99456.84;;;1.01
43802;BMP280;29429;51.074;13.764;2022-11-20T11:01:15;99444.22;;;1.74
43802;BMP280;29429;51.074;13.764;2022-11-20T11:03:43;99440.28;;;1.78
43802;BMP280;29429;51.074;13.764;2022-11-20T11:06:38;99436.38;;;1.82
43802;BMP280;29429;51.074;13.764;2022-11-20T11:09:17;99434.44;;;1.84
43802;BMP280;29429;51.074;13.764;2022-11-20T11:11:47;99429.16;;;1.84
43802;BMP280;29429;51.074;13.764;2022-11-20T11:14:16;99433.31;;;1.95
43802;BMP280;29429;51.074;13.764;2022-11-20T11:16:55;99419.06;;;2.05
43802;BMP280;29429;51.074;13.764;2022-11-20T11:19:23;99413.00;;;2.13
43802;BMP280;29429;51.074;13.764;2022-11-20T11:21:56;99421.94;;;2.28
43802;BMP280;29429;51.074;13.764;2022-11-20T11:24:29;99415.75;;;2.45
43802;BMP280;29429;51.074;13.764;2022-11-20T11:27:14;99413.13;;;2.61
43802;BMP280;29429;51.074;13.764;2022-11-20T11:29:45;99401.28;;;2.73
43802;BMP280;29429;51.074;13.764;2022-11-20T11:32:16;99402.97;;;2.90
43802;BMP280;29429;51.074;13.764;2022-11-20T11:34:44;99401.31;;;2.97
43802;BMP280;29429;51.074;13.764;2022-11-20T11:37:18;99388.16;;;2.97
43802;BMP280;29429;51.074;13.764;2022-11-20T11:39:47;99394.06;;;2.91
43802;BMP280;29429;51.074;13.764;2022-11-20T11:42:30;99394.41;;;2.96
43802;BMP280;29429;51.074;13.764;2022-11-20T11:45:00;99385.69;;;2.96
43802;BMP280;29429;51.074;13.764;2022-11-20T11:47:46;99376.47;;;2.92
43802;BMP280;29429;51.074;13.764;2022-11-20T11:56:05;99369.06;;;2.79
43802;BMP280;29429;51.074;13.764;2022-11-20T11:58:51;99368.56;;;2.68
43802;BMP280;29429;51.074;13.764;2022-11-20T12:01:49;99367.88;;;2.50
43802;BMP280;29429;51.074;13.764;2022-11-20T12:04:52;99358.84;;;2.44
43802;BMP280;29429;51.074;13.764;2022-11-20T12:10:57;99357.19;;;2.27
43802;BMP280;29429;51.074;13.764;2022-11-20T12:16:03;99349.59;;;2.16
43802;BMP280;29429;51.074;13.764;2022-11-20T12:18:31;99357.66;;;2.14
43802;BMP280;29429;51.074;13.764;2022-11-20T12:21:08;99356.16;;;2.12
43802;BMP280;29429;51.074;13.764;2022-11-20T12:24:03;99349.38;;;2.09
43802;BMP280;29429;51.074;13.764;2022-11-20T13:00:01;99355.06;;;3.03
43802;BMP280;29429;51.074;13.764;2022-11-20T13:08:28;99347.78;;;3.21
43802;BMP280;29429;51.074;13.764;2022-11-20T13:11:25;99344.16;;;3.22
43802;BMP280;29429;51.074;13.764;2022-11-20T13:14:00;99348.28;;;3.17
43802;BMP280;29429;51.074;13.764;2022-11-20T13:16:45;99343.16;;;3.23
43802;BMP280;29429;51.074;13.764;2022-11-20T13:19:17;99345.47;;;3.26
43802;BMP280;29429;51.074;13.764;2022-11-20T13:21:48;99338.69;;;3.32
43802;BMP280;29429;51.074;13.764;2022-11-20T13:29:37;99318.66;;;3.23
43802;BMP280;29429;51.074;13.764;2022-11-20T13:32:16;99324.44;;;3.10
43802;BMP280;29429;51.074;13.764;2022-11-20T13:35:01;99326.41;;;3.00
43802;BMP280;29429;51.074;13.764;2022-11-20T13:37:34;99321.81;;;2.94
43802;BMP280;29429;51.074;13.764;2022-11-20T13:42:45;99321.66;;;2.95
43802;BMP280;29429;51.074;13.764;2022-11-20T13:45:28;99326.28;;;2.93
43802;BMP280;29429;51.074;13.764;2022-11-20T13:47:58;99317.38;;;2.94
43802;BMP280;29429;51.074;13.764;2022-11-20T13:54:00;99312.78;;;2.88
43802;BMP280;29429;51.074;13.764;2022-11-20T13:59:46;99326.75;;;2.89
43802;BMP280;29429;51.074;13.764;2022-11-20T14:02:18;99328.25;;;2.83
43802;BMP280;29429;51.074;13.764;2022-11-20T14:04:54;99326.13;;;2.79
43802;BMP280;29429;51.074;13.764;2022-11-20T14:07:41;99335.66;;;2.72
43802;BMP280;29429;51.074;13.764;2022-11-20T14:10:29;99330.72;;;2.69
43802;BMP280;29429;51.074;13.764;2022-11-20T14:12:58;99325.28;;;2.62
43802;BMP280;29429;51.074;13.764;2022-11-20T14:15:36;99332.72;;;2.59
43802;BMP280;29429;51.074;13.764;2022-11-20T14:18:20;99333.03;;;2.47
43802;BMP280;29429;51.074;13.764;2022-11-20T14:20:48;99335.97;;;2.44
43802;BMP280;29429;51.074;13.764;2022-11-20T14:23:28;99330.41;;;2.47
43802;BMP280;29429;51.074;13.764;2022-11-20T14:25:56;99334.34;;;2.43
43802;BMP280;29429;51.074;13.764;2022-11-20T14:28:31;99322.31;;;2.41
43802;BMP280;29429;51.074;13.764;2022-11-20T14:30:58;99329.53;;;2.31
43802;BMP280;29429;51.074;13.764;2022-11-20T14:33:26;99316.06;;;2.18
43802;BMP280;29429;51.074;13.764;2022-11-20T14:35:56;99324.72;;;2.02
43802;BMP280;29429;51.074;13.764;2022-11-20T14:38:31;99325.50;;;1.87
43802;BMP280;29429;51.074;13.764;2022-11-20T14:41:17;99326.94;;;1.73
43802;BMP280;29429;51.074;13.764;2022-11-20T14:43:57;99334.13;;;1.63
43802;BMP280;29429;51.074;13.764;2022-11-20T14:46:26;99324.22;;;1.49
43802;BMP280;29429;51.074;13.764;2022-11-20T14:48:56;99322.25;;;1.43
43802;BMP280;29429;51.074;13.764;2022-11-20T14:51:39;99332.00;;;1.33
43802;BMP280;29429;51.074;13.764;2022-11-20T14:54:18;99316.03;;;1.18
43802;BMP280;29429;51.074;13.764;2022-11-20T14:56:57;99313.88;;;1.13
43802;BMP280;29429;51.074;13.764;2022-11-20T14:59:33;99313.53;;;1.08
43802;BMP280;29429;51.074;13.764;2022-11-20T15:02:11;99323.63;;;1.03
43802;BMP280;29429;51.074;13.764;2022-11-20T15:04:57;99319.47;;;0.93
43802;BMP280;29429;51.074;13.764;2022-11-20T15:07:33;99318.63;;;0.84
43802;BMP280;29429;51.074;13.764;2022-11-20T15:10:06;99319.22;;;0.78
43802;BMP280;29429;51.074;13.764;2022-11-20T15:12:40;99310.31;;;0.71
43802;BMP280;29429;51.074;13.764;2022-11-20T15:15:17;99315.88;;;0.68
43802;BMP280;29429;51.074;13.764;2022-11-20T15:17:46;99315.28;;;0.56
43802;BMP280;29429;51.074;13.764;2022-11-20T15:20:16;99318.91;;;0.55
43802;BMP280;29429;51.074;13.764;2022-11-20T15:22:44;99315.06;;;0.50
43802;BMP280;29429;51.074;13.764;2022-11-20T15:25:17;99306.16;;;0.43
43802;BMP280;29429;51.074;13.764;2022-11-20T15:27:48;99311.31;;;0.35
43802;BMP280;29429;51.074;13.764;2022-11-20T15:30:19;99315.22;;;0.31
43802;BMP280;29429;51.074;13.764;2022-11-20T15:32:47;99316.50;;;0.27
43802;BMP280;29429;51.074;13.764;2022-11-20T15:35:15;99299.72;;;0.20
43802;BMP280;29429;51.074;13.764;2022-11-20T15:37:42;99302.63;;;0.17
43802;BMP280;29429;51.074;13.764;2022-11-20T15:40:10;99310.78;;;0.14
43802;BMP280;29429;51.074;13.764;2022-11-20T15:42:37;99304.69;;;0.05
43802;BMP280;29429;51.074;13.764;2022-11-20T15:45:16;99315.28;;;0.04
43802;BMP280;29429;51.074;13.764;2022-11-20T15:47:55;99321.56;;;-0.07
43802;BMP280;29429;51.074;13.764;2022-11-20T15:50:25;99318.13;;;-0.08
43802;BMP280;29429;51.074;13.764;2022-11-20T15:52:56;99312.94;;;-0.17
43802;BMP280;29429;51.074;13.764;2022-11-20T15:55:24;99313.13;;;-0.19
43802;BMP280;29429;51.074;13.764;2022-11-20T15:57:51;99314.66;;;-0.26
43802;BMP280;29429;51.074;13.764;2022-11-20T16:00:18;99316.59;;;-0.28
43802;BMP280;29429;51.074;13.764;2022-11-20T16:02:49;99314.84;;;-0.37
43802;BMP280;29429;51.074;13.764;2022-11-20T16:05:18;99317.63;;;-0.38
43802;BMP280;29429;51.074;13.764;2022-11-20T16:07:45;99320.69;;;-0.43
43802;BMP280;29429;51.074;13.764;2022-11-20T16:10:12;99319.03;;;-0.44
43802;BMP280;29429;51.074;13.764;2022-11-20T16:12:39;99320.97;;;-0.46
43802;BMP280;29429;51.074;13.764;2022-11-20T16:15:24;99317.13;;;-0.51